India Meteorological Department
Airport METARs
Date : 20-11-2017
Sl. # Airport METAR
1 Ahmedabad VAAH 192130Z 32004KT 4000 HZ NSC 19/14 Q1014 TAIL WIND RWY-23 700FT 20KT 300FT 9KT T/D 7KT NOSIG=
2 Amritsar VIAR 192130Z 00000KT 1800 BR NSC 09/09 Q1017 NOSIG=
3 Bangalore VOBL 192130Z VRB02KT 3000 BR SCT008 20/20 Q1016 TEMPO 2000 BR=
4 Bhubaneswar VEBS 192130Z 26002KT 2000 HZ SCT018 SCT100 24/23 Q1012 NOSIG=
5 Chennai VOMM 192130Z 26003KT 4500 -DZ FEW020 FEW025CB 27/26 Q1011 TEMPO 3000 RA=
6 Coimbatore VOCB 192130Z 06005KT 4000 BR SCT015 SCT080 25/22 Q1013 NOSIG=
7 Colombo VCBI 192140Z 05004KT 9999 VCTS FEW017 FEW020CB 24/23 Q1009 NOSIG RMK W/SW=
8 Delhi VIDP 192130Z 28006KT 2100 HZ NSC 16/07 Q1017 NOSIG=
9 Gauhati VEGT 192130Z NIL=
10 Gaya VEGY 192130Z NIL=
11 Goa VOGO 192100Z VRB02KT 2500 BR SCT016 BKN080 24/22 Q1010 NOSIG=
12 Hyderabad VOHS 192130Z 14003KT 5000 BR SCT015 SCT100 20/19 Q1015 NOSIG=
13 Indore VAID 192100Z 05005KT 4000 HZ FEW020 21/15 Q1016=
14 Jaipur VIJP 192130Z 00000KT 2000 FU NSC 14/04 Q1018 NOSIG=
15 Kochi VOCI 192130Z 00000KT 4500 BR FEW015 BKN090 25/22 Q1009 NOSIG=
16 Kolkata VECC 192130Z 00000KT 2400 BR FEW020 SCT100 24/22 Q1011 NOSIG=
17 Kozhikode VOCL 192130Z 07003KT 3000 BR FEW012 FEW025CB BKN090 26/23 Q1010 NOSIG=
18 Lucknow VILK 192130Z VRB02KT 2000 BR FEW020 SCT100 18/13 Q1014=
19 Madurai VOMD 192100Z 03003KT 5000 BR FEW020 SCT100 25/23 Q1011 NOSIG=
20 Mumbai VABB 192130Z 00000KT 3000 FU SCT100 27/16 Q1011 NOSIG=
21 Nagpur VANP 192130Z 00000KT 3000 HZ NSC 23/18 Q1014 NOSIG=
22 Patna VEPT 192130Z NIL=
23 Ranchi VERC 192100Z 00000KT 3000 HZ NSC 19/16 Q1016 NOSIG=
24 Trichy VOTR 192130Z 02003KT 1500 BR FEW016 SCT100 26/25 Q1010 NOSIG=
25 Trivandrum VOTV 192130Z 03003KT 3000 HZ SCT015 26/24 Q1009 NOSIG=
26 Varanasi VEBN 192130Z 27004KT 1000 R27/2000 BR NSC 19/17 Q1013 NOSIG=
27 Vizag VOVZ 192100Z VRB02KT 6000 TS FEW018 FEW025CB 26/24 Q1011 NOSIG =
28 Male VRMM 192100Z VRB02KT 9999 FEW018 SCT120 28/25 Q1010 NOSIG=
29 Gan VRMG 192100Z 29007KT 9000 FEW018TCU BKN260 28/24 Q1010 NOSIG=
30 Kathmandu VNKT 192130Z NIL=
31 Dhaka VGHS 192130Z 00000KT 3500 HZ NSC 23/20 Q1012 NOSIG=
32 Colombo VCBI 192140Z 05004KT 9999 VCTS FEW017 FEW020CB 24/23 Q1009 NOSIG RMK W/SW=
33 Karachi OPKC 192025Z 34004KT 6000 NSC 17/01 Q1018 NOSIG=
34 Lahore OPLA 192030Z 00000KT 4000 FU NSC 14/08 A30.03 Q1017=
35 Pune VAPO 192030Z VRB02KT 6000 BKN080 22/16 Q1016 NOSIG=

 

--- End of List ---